sensor_id;sensor_type;location;lat;lon;timestamp;P1;durP1;ratioP1;P2;durP2;ratioP2
71456;SDS011;59263;48.160;11.752;2024-03-25T00:00:19;4.30;;;1.20;;
71456;SDS011;59263;48.160;11.752;2024-03-25T00:02:45;3.13;;;0.60;;
71456;SDS011;59263;48.160;11.752;2024-03-25T00:05:11;4.60;;;1.20;;
71456;SDS011;59263;48.160;11.752;2024-03-25T00:07:39;2.87;;;0.70;;
71456;SDS011;59263;48.160;11.752;2024-03-25T00:10:05;3.63;;;1.03;;
71456;SDS011;59263;48.160;11.752;2024-03-25T00:12:34;2.83;;;0.57;;
71456;SDS011;59263;48.160;11.752;2024-03-25T00:14:59;5.18;;;0.85;;
71456;SDS011;59263;48.160;11.752;2024-03-25T00:17:24;2.17;;;0.60;;
71456;SDS011;59263;48.160;11.752;2024-03-25T00:19:49;4.10;;;0.87;;
71456;SDS011;59263;48.160;11.752;2024-03-25T00:22:18;4.10;;;0.90;;
71456;SDS011;59263;48.160;11.752;2024-03-25T00:24:44;2.97;;;0.80;;
71456;SDS011;59263;48.160;11.752;2024-03-25T00:27:10;3.92;;;0.77;;
71456;SDS011;59263;48.160;11.752;2024-03-25T00:29:35;6.70;;;1.00;;
71456;SDS011;59263;48.160;11.752;2024-03-25T00:32:00;3.70;;;1.00;;
71456;SDS011;59263;48.160;11.752;2024-03-25T00:34:25;3.13;;;0.77;;
71456;SDS011;59263;48.160;11.752;2024-03-25T00:36:51;4.87;;;1.00;;
71456;SDS011;59263;48.160;11.752;2024-03-25T00:39:16;6.40;;;1.00;;
71456;SDS011;59263;48.160;11.752;2024-03-25T00:41:42;4.50;;;0.90;;
71456;SDS011;59263;48.160;11.752;2024-03-25T00:44:07;4.82;;;0.95;;
71456;SDS011;59263;48.160;11.752;2024-03-25T00:46:32;3.20;;;0.73;;
71456;SDS011;59263;48.160;11.752;2024-03-25T00:48:57;4.40;;;0.80;;
71456;SDS011;59263;48.160;11.752;2024-03-25T00:51:23;3.57;;;1.00;;
71456;SDS011;59263;48.160;11.752;2024-03-25T00:53:48;5.77;;;1.13;;
71456;SDS011;59263;48.160;11.752;2024-03-25T00:56:13;3.83;;;0.80;;
71456;SDS011;59263;48.160;11.752;2024-03-25T00:58:39;3.13;;;0.80;;
71456;SDS011;59263;48.160;11.752;2024-03-25T01:01:04;4.30;;;0.73;;
71456;SDS011;59263;48.160;11.752;2024-03-25T01:03:29;5.10;;;1.00;;
71456;SDS011;59263;48.160;11.752;2024-03-25T01:05:55;2.93;;;0.80;;
71456;SDS011;59263;48.160;11.752;2024-03-25T01:08:20;3.10;;;0.80;;
71456;SDS011;59263;48.160;11.752;2024-03-25T01:10:45;2.37;;;0.70;;
71456;SDS011;59263;48.160;11.752;2024-03-25T01:13:10;4.33;;;0.83;;
71456;SDS011;59263;48.160;11.752;2024-03-25T01:15:36;2.97;;;0.73;;
71456;SDS011;59263;48.160;11.752;2024-03-25T01:18:01;5.97;;;0.93;;
71456;SDS011;59263;48.160;11.752;2024-03-25T01:20:26;5.40;;;0.93;;
71456;SDS011;59263;48.160;11.752;2024-03-25T01:22:51;4.83;;;0.80;;
71456;SDS011;59263;48.160;11.752;2024-03-25T01:25:17;4.30;;;0.80;;
71456;SDS011;59263;48.160;11.752;2024-03-25T01:27:42;4.43;;;0.90;;
71456;SDS011;59263;48.160;11.752;2024-03-25T01:30:07;3.90;;;0.87;;
71456;SDS011;59263;48.160;11.752;2024-03-25T01:32:33;4.05;;;0.88;;
71456;SDS011;59263;48.160;11.752;2024-03-25T01:34:58;4.33;;;0.87;;
71456;SDS011;59263;48.160;11.752;2024-03-25T01:37:24;5.90;;;0.87;;
71456;SDS011;59263;48.160;11.752;2024-03-25T01:39:49;5.07;;;0.97;;
71456;SDS011;59263;48.160;11.752;2024-03-25T01:42:14;3.67;;;0.70;;
71456;SDS011;59263;48.160;11.752;2024-03-25T01:44:40;4.80;;;0.90;;
71456;SDS011;59263;48.160;11.752;2024-03-25T01:47:06;4.65;;;0.68;;
71456;SDS011;59263;48.160;11.752;2024-03-25T01:49:31;2.37;;;0.60;;
71456;SDS011;59263;48.160;11.752;2024-03-25T01:51:56;5.07;;;0.90;;
71456;SDS011;59263;48.160;11.752;2024-03-25T01:54:23;2.10;;;0.60;;
71456;SDS011;59263;48.160;11.752;2024-03-25T01:56:48;4.18;;;1.08;;
71456;SDS011;59263;48.160;11.752;2024-03-25T01:59:15;4.13;;;0.67;;
71456;SDS011;59263;48.160;11.752;2024-03-25T02:01:40;6.35;;;0.80;;
71456;SDS011;59263;48.160;11.752;2024-03-25T02:04:06;5.70;;;1.10;;
71456;SDS011;59263;48.160;11.752;2024-03-25T02:06:32;5.43;;;1.00;;
71456;SDS011;59263;48.160;11.752;2024-03-25T02:08:58;3.53;;;0.70;;
71456;SDS011;59263;48.160;11.752;2024-03-25T02:11:23;4.73;;;0.90;;
71456;SDS011;59263;48.160;11.752;2024-03-25T02:13:50;2.95;;;0.65;;
71456;SDS011;59263;48.160;11.752;2024-03-25T02:16:17;2.97;;;0.60;;
71456;SDS011;59263;48.160;11.752;2024-03-25T02:18:42;3.75;;;0.80;;
71456;SDS011;59263;48.160;11.752;2024-03-25T02:21:07;3.13;;;0.73;;
71456;SDS011;59263;48.160;11.752;2024-03-25T02:23:33;4.10;;;0.80;;
71456;SDS011;59263;48.160;11.752;2024-03-25T02:25:59;2.42;;;0.57;;
71456;SDS011;59263;48.160;11.752;2024-03-25T02:28:24;2.67;;;0.70;;
71456;SDS011;59263;48.160;11.752;2024-03-25T02:30:50;4.53;;;0.80;;
71456;SDS011;59263;48.160;11.752;2024-03-25T02:33:15;4.43;;;1.00;;
71456;SDS011;59263;48.160;11.752;2024-03-25T02:35:41;3.97;;;1.00;;
71456;SDS011;59263;48.160;11.752;2024-03-25T02:38:06;3.35;;;0.80;;
71456;SDS011;59263;48.160;11.752;2024-03-25T02:40:33;3.33;;;0.80;;
71456;SDS011;59263;48.160;11.752;2024-03-25T02:42:58;3.92;;;0.80;;
71456;SDS011;59263;48.160;11.752;2024-03-25T02:45:24;5.90;;;0.90;;
71456;SDS011;59263;48.160;11.752;2024-03-25T02:47:49;2.47;;;0.60;;
71456;SDS011;59263;48.160;11.752;2024-03-25T02:50:15;4.13;;;0.80;;
71456;SDS011;59263;48.160;11.752;2024-03-25T02:52:40;2.80;;;0.67;;
71456;SDS011;59263;48.160;11.752;2024-03-25T02:55:05;3.73;;;0.70;;
71456;SDS011;59263;48.160;11.752;2024-03-25T02:57:31;2.85;;;0.75;;
71456;SDS011;59263;48.160;11.752;2024-03-25T02:59:56;3.67;;;1.00;;
71456;SDS011;59263;48.160;11.752;2024-03-25T03:02:21;3.70;;;0.77;;
71456;SDS011;59263;48.160;11.752;2024-03-25T03:04:47;2.97;;;0.60;;
71456;SDS011;59263;48.160;11.752;2024-03-25T03:07:12;5.03;;;1.00;;
71456;SDS011;59263;48.160;11.752;2024-03-25T03:09:37;2.73;;;0.80;;
71456;SDS011;59263;48.160;11.752;2024-03-25T03:12:02;5.60;;;1.17;;
71456;SDS011;59263;48.160;11.752;2024-03-25T03:14:28;5.37;;;0.90;;
71456;SDS011;59263;48.160;11.752;2024-03-25T03:16:53;3.80;;;0.73;;
71456;SDS011;59263;48.160;11.752;2024-03-25T03:19:20;3.60;;;0.75;;
71456;SDS011;59263;48.160;11.752;2024-03-25T03:21:45;3.67;;;0.90;;
71456;SDS011;59263;48.160;11.752;2024-03-25T03:24:10;4.63;;;1.30;;
71456;SDS011;59263;48.160;11.752;2024-03-25T03:26:35;6.13;;;1.23;;
71456;SDS011;59263;48.160;11.752;2024-03-25T03:29:01;3.63;;;1.02;;
71456;SDS011;59263;48.160;11.752;2024-03-25T03:31:26;5.40;;;1.23;;
71456;SDS011;59263;48.160;11.752;2024-03-25T03:33:51;3.50;;;0.90;;
71456;SDS011;59263;48.160;11.752;2024-03-25T03:36:20;7.05;;;1.00;;
71456;SDS011;59263;48.160;11.752;2024-03-25T03:38:46;4.17;;;1.00;;
71456;SDS011;59263;48.160;11.752;2024-03-25T03:41:11;4.78;;;1.08;;
71456;SDS011;59263;48.160;11.752;2024-03-25T03:43:36;6.33;;;1.20;;
71456;SDS011;59263;48.160;11.752;2024-03-25T03:46:02;6.47;;;1.33;;
71456;SDS011;59263;48.160;11.752;2024-03-25T03:48:27;6.37;;;1.20;;
71456;SDS011;59263;48.160;11.752;2024-03-25T03:50:53;8.80;;;1.52;;
71456;SDS011;59263;48.160;11.752;2024-03-25T03:53:18;6.07;;;1.50;;
71456;SDS011;59263;48.160;11.752;2024-03-25T03:55:52;4.93;;;0.90;;
71456;SDS011;59263;48.160;11.752;2024-03-25T03:58:17;3.67;;;0.90;;
71456;SDS011;59263;48.160;11.752;2024-03-25T04:00:43;5.65;;;1.00;;
71456;SDS011;59263;48.160;11.752;2024-03-25T04:03:08;7.30;;;1.70;;
71456;SDS011;59263;48.160;11.752;2024-03-25T04:05:34;4.20;;;0.90;;
71456;SDS011;59263;48.160;11.752;2024-03-25T04:07:59;6.80;;;1.30;;
71456;SDS011;59263;48.160;11.752;2024-03-25T04:10:26;3.73;;;1.03;;
71456;SDS011;59263;48.160;11.752;2024-03-25T04:12:52;5.33;;;1.30;;
71456;SDS011;59263;48.160;11.752;2024-03-25T04:15:17;5.50;;;1.10;;
71456;SDS011;59263;48.160;11.752;2024-03-25T04:17:43;4.25;;;1.20;;
71456;SDS011;59263;48.160;11.752;2024-03-25T04:20:10;4.15;;;1.05;;
71456;SDS011;59263;48.160;11.752;2024-03-25T04:22:35;5.07;;;0.90;;
71456;SDS011;59263;48.160;11.752;2024-03-25T04:25:01;3.90;;;0.83;;
71456;SDS011;59263;48.160;11.752;2024-03-25T04:27:26;3.87;;;0.83;;
71456;SDS011;59263;48.160;11.752;2024-03-25T04:29:51;2.95;;;0.77;;
71456;SDS011;59263;48.160;11.752;2024-03-25T04:32:17;6.80;;;1.00;;
71456;SDS011;59263;48.160;11.752;2024-03-25T04:34:42;4.73;;;1.00;;
71456;SDS011;59263;48.160;11.752;2024-03-25T04:37:07;3.90;;;1.03;;
71456;SDS011;59263;48.160;11.752;2024-03-25T04:39:33;4.27;;;1.20;;
71456;SDS011;59263;48.160;11.752;2024-03-25T04:41:58;5.77;;;1.10;;
71456;SDS011;59263;48.160;11.752;2024-03-25T04:44:23;8.13;;;1.10;;
71456;SDS011;59263;48.160;11.752;2024-03-25T04:46:48;3.03;;;0.53;;
71456;SDS011;59263;48.160;11.752;2024-03-25T04:49:14;7.83;;;1.03;;
71456;SDS011;59263;48.160;11.752;2024-03-25T04:51:39;4.20;;;0.90;;
71456;SDS011;59263;48.160;11.752;2024-03-25T04:54:04;6.63;;;1.30;;
71456;SDS011;59263;48.160;11.752;2024-03-25T04:56:30;6.53;;;1.27;;
71456;SDS011;59263;48.160;11.752;2024-03-25T04:58:56;5.50;;;0.85;;
71456;SDS011;59263;48.160;11.752;2024-03-25T05:01:26;3.70;;;1.08;;
71456;SDS011;59263;48.160;11.752;2024-03-25T05:03:51;6.80;;;1.20;;
71456;SDS011;59263;48.160;11.752;2024-03-25T05:06:16;5.70;;;1.10;;
71456;SDS011;59263;48.160;11.752;2024-03-25T05:08:42;6.13;;;1.00;;
71456;SDS011;59263;48.160;11.752;2024-03-25T05:11:07;3.23;;;0.80;;
71456;SDS011;59263;48.160;11.752;2024-03-25T05:13:32;2.80;;;0.70;;
71456;SDS011;59263;48.160;11.752;2024-03-25T05:15:57;4.53;;;0.93;;
71456;SDS011;59263;48.160;11.752;2024-03-25T05:18:23;6.20;;;1.00;;
71456;SDS011;59263;48.160;11.752;2024-03-25T05:20:48;5.43;;;1.00;;
71456;SDS011;59263;48.160;11.752;2024-03-25T05:23:14;5.57;;;1.10;;
71456;SDS011;59263;48.160;11.752;2024-03-25T05:25:39;3.63;;;0.77;;
71456;SDS011;59263;48.160;11.752;2024-03-25T05:28:05;4.20;;;0.80;;
71456;SDS011;59263;48.160;11.752;2024-03-25T05:30:31;2.97;;;0.73;;
71456;SDS011;59263;48.160;11.752;2024-03-25T05:32:56;5.17;;;1.07;;
71456;SDS011;59263;48.160;11.752;2024-03-25T05:35:21;3.47;;;0.90;;
71456;SDS011;59263;48.160;11.752;2024-03-25T05:37:47;5.40;;;1.07;;
71456;SDS011;59263;48.160;11.752;2024-03-25T05:40:12;5.23;;;1.03;;
71456;SDS011;59263;48.160;11.752;2024-03-25T05:42:37;4.83;;;1.00;;
71456;SDS011;59263;48.160;11.752;2024-03-25T05:45:03;5.90;;;1.23;;
71456;SDS011;59263;48.160;11.752;2024-03-25T05:47:28;3.53;;;0.75;;
71456;SDS011;59263;48.160;11.752;2024-03-25T05:49:53;8.87;;;1.30;;
71456;SDS011;59263;48.160;11.752;2024-03-25T05:52:19;3.50;;;1.07;;
71456;SDS011;59263;48.160;11.752;2024-03-25T05:54:44;5.10;;;1.10;;
71456;SDS011;59263;48.160;11.752;2024-03-25T05:57:09;2.73;;;0.80;;
71456;SDS011;59263;48.160;11.752;2024-03-25T05:59:35;6.83;;;1.17;;
71456;SDS011;59263;48.160;11.752;2024-03-25T06:02:00;4.63;;;1.00;;
71456;SDS011;59263;48.160;11.752;2024-03-25T06:04:25;4.27;;;0.93;;
71456;SDS011;59263;48.160;11.752;2024-03-25T06:06:50;3.77;;;1.00;;
71456;SDS011;59263;48.160;11.752;2024-03-25T06:09:16;3.00;;;0.80;;
71456;SDS011;59263;48.160;11.752;2024-03-25T06:11:41;8.55;;;1.02;;
71456;SDS011;59263;48.160;11.752;2024-03-25T06:14:07;5.82;;;1.20;;
71456;SDS011;59263;48.160;11.752;2024-03-25T06:16:32;4.33;;;1.03;;
71456;SDS011;59263;48.160;11.752;2024-03-25T06:18:57;2.90;;;0.80;;
71456;SDS011;59263;48.160;11.752;2024-03-25T06:21:23;2.97;;;0.83;;
71456;SDS011;59263;48.160;11.752;2024-03-25T06:23:48;3.00;;;0.67;;
71456;SDS011;59263;48.160;11.752;2024-03-25T06:26:13;4.67;;;1.00;;
71456;SDS011;59263;48.160;11.752;2024-03-25T06:28:38;5.40;;;1.13;;
71456;SDS011;59263;48.160;11.752;2024-03-25T06:31:04;4.97;;;1.02;;
71456;SDS011;59263;48.160;11.752;2024-03-25T06:33:48;5.55;;;1.20;;
71456;SDS011;59263;48.160;11.752;2024-03-25T06:36:32;4.53;;;1.17;;
71456;SDS011;59263;48.160;11.752;2024-03-25T06:38:57;6.80;;;1.20;;
71456;SDS011;59263;48.160;11.752;2024-03-25T06:41:22;4.93;;;1.20;;
71456;SDS011;59263;48.160;11.752;2024-03-25T06:43:48;5.50;;;1.20;;
71456;SDS011;59263;48.160;11.752;2024-03-25T06:46:13;7.27;;;1.30;;
71456;SDS011;59263;48.160;11.752;2024-03-25T06:48:38;4.90;;;1.10;;
71456;SDS011;59263;48.160;11.752;2024-03-25T06:51:03;3.20;;;0.97;;
71456;SDS011;59263;48.160;11.752;2024-03-25T06:53:29;6.20;;;1.30;;
71456;SDS011;59263;48.160;11.752;2024-03-25T06:55:58;5.10;;;1.20;;
71456;SDS011;59263;48.160;11.752;2024-03-25T06:58:24;4.18;;;1.00;;
71456;SDS011;59263;48.160;11.752;2024-03-25T07:00:50;4.55;;;1.17;;
71456;SDS011;59263;48.160;11.752;2024-03-25T07:03:16;4.80;;;1.10;;
71456;SDS011;59263;48.160;11.752;2024-03-25T07:05:44;5.13;;;1.42;;
71456;SDS011;59263;48.160;11.752;2024-03-25T07:08:10;4.75;;;1.13;;
71456;SDS011;59263;48.160;11.752;2024-03-25T07:10:35;5.40;;;1.33;;
71456;SDS011;59263;48.160;11.752;2024-03-25T07:13:01;4.60;;;1.00;;
71456;SDS011;59263;48.160;11.752;2024-03-25T07:15:26;3.97;;;0.93;;
71456;SDS011;59263;48.160;11.752;2024-03-25T07:17:51;5.73;;;1.27;;
71456;SDS011;59263;48.160;11.752;2024-03-25T07:20:17;8.70;;;1.47;;
71456;SDS011;59263;48.160;11.752;2024-03-25T07:22:42;3.60;;;0.90;;
71456;SDS011;59263;48.160;11.752;2024-03-25T07:25:07;5.77;;;1.03;;
71456;SDS011;59263;48.160;11.752;2024-03-25T07:27:34;6.38;;;1.40;;
71456;SDS011;59263;48.160;11.752;2024-03-25T07:29:59;7.03;;;1.43;;
71456;SDS011;59263;48.160;11.752;2024-03-25T07:32:25;7.83;;;1.73;;
71456;SDS011;59263;48.160;11.752;2024-03-25T07:34:50;5.93;;;1.27;;
71456;SDS011;59263;48.160;11.752;2024-03-25T07:37:15;6.83;;;1.50;;
71456;SDS011;59263;48.160;11.752;2024-03-25T07:39:42;4.90;;;1.08;;
71456;SDS011;59263;48.160;11.752;2024-03-25T07:42:07;5.07;;;1.27;;
71456;SDS011;59263;48.160;11.752;2024-03-25T07:44:32;4.90;;;1.13;;
71456;SDS011;59263;48.160;11.752;2024-03-25T07:46:58;5.00;;;1.17;;
71456;SDS011;59263;48.160;11.752;2024-03-25T07:49:23;4.80;;;1.27;;
71456;SDS011;59263;48.160;11.752;2024-03-25T07:51:48;6.27;;;1.20;;
71456;SDS011;59263;48.160;11.752;2024-03-25T07:54:13;5.90;;;1.40;;
71456;SDS011;59263;48.160;11.752;2024-03-25T07:56:41;8.88;;;1.50;;
71456;SDS011;59263;48.160;11.752;2024-03-25T07:59:07;5.13;;;1.30;;
71456;SDS011;59263;48.160;11.752;2024-03-25T08:01:32;6.90;;;1.50;;
71456;SDS011;59263;48.160;11.752;2024-03-25T08:03:57;6.43;;;1.60;;
71456;SDS011;59263;48.160;11.752;2024-03-25T08:06:22;7.13;;;1.60;;
71456;SDS011;59263;48.160;11.752;2024-03-25T08:08:48;5.33;;;1.47;;
71456;SDS011;59263;48.160;11.752;2024-03-25T08:11:13;5.13;;;1.48;;
71456;SDS011;59263;48.160;11.752;2024-03-25T08:13:38;5.03;;;1.60;;
71456;SDS011;59263;48.160;11.752;2024-03-25T08:16:04;7.83;;;1.67;;
71456;SDS011;59263;48.160;11.752;2024-03-25T08:18:29;9.40;;;1.73;;
71456;SDS011;59263;48.160;11.752;2024-03-25T08:20:54;8.97;;;1.30;;
71456;SDS011;59263;48.160;11.752;2024-03-25T08:23:20;7.23;;;1.80;;
71456;SDS011;59263;48.160;11.752;2024-03-25T08:25:45;5.27;;;1.20;;
71456;SDS011;59263;48.160;11.752;2024-03-25T08:28:10;11.00;;;1.80;;
71456;SDS011;59263;48.160;11.752;2024-03-25T08:30:36;8.63;;;1.90;;
71456;SDS011;59263;48.160;11.752;2024-03-25T08:33:01;6.28;;;1.65;;
71456;SDS011;59263;48.160;11.752;2024-03-25T08:35:26;3.67;;;1.25;;
71456;SDS011;59263;48.160;11.752;2024-03-25T08:37:52;7.20;;;1.57;;
71456;SDS011;59263;48.160;11.752;2024-03-25T08:40:17;5.73;;;1.40;;
71456;SDS011;59263;48.160;11.752;2024-03-25T08:42:42;5.90;;;1.73;;
71456;SDS011;59263;48.160;11.752;2024-03-25T08:45:08;6.03;;;1.67;;
71456;SDS011;59263;48.160;11.752;2024-03-25T08:47:33;8.53;;;1.63;;
71456;SDS011;59263;48.160;11.752;2024-03-25T08:49:59;5.93;;;1.60;;
71456;SDS011;59263;48.160;11.752;2024-03-25T08:52:24;6.00;;;1.40;;
71456;SDS011;59263;48.160;11.752;2024-03-25T08:54:49;6.77;;;1.97;;
71456;SDS011;59263;48.160;11.752;2024-03-25T08:57:14;7.13;;;1.57;;
71456;SDS011;59263;48.160;11.752;2024-03-25T08:59:40;5.50;;;1.77;;
71456;SDS011;59263;48.160;11.752;2024-03-25T09:02:06;6.43;;;1.50;;
71456;SDS011;59263;48.160;11.752;2024-03-25T09:04:31;9.55;;;2.13;;
71456;SDS011;59263;48.160;11.752;2024-03-25T09:06:57;5.17;;;1.50;;
71456;SDS011;59263;48.160;11.752;2024-03-25T09:09:22;7.97;;;1.47;;
71456;SDS011;59263;48.160;11.752;2024-03-25T09:12:06;6.35;;;1.33;;
71456;SDS011;59263;48.160;11.752;2024-03-25T09:14:32;8.37;;;1.80;;
71456;SDS011;59263;48.160;11.752;2024-03-25T09:16:57;5.90;;;1.47;;
71456;SDS011;59263;48.160;11.752;2024-03-25T09:19:22;7.27;;;1.50;;
71456;SDS011;59263;48.160;11.752;2024-03-25T09:21:48;6.10;;;1.40;;
71456;SDS011;59263;48.160;11.752;2024-03-25T09:24:13;6.57;;;1.77;;
71456;SDS011;59263;48.160;11.752;2024-03-25T09:26:40;5.95;;;1.35;;
71456;SDS011;59263;48.160;11.752;2024-03-25T09:29:05;9.00;;;1.70;;
71456;SDS011;59263;48.160;11.752;2024-03-25T09:31:30;8.27;;;1.43;;
71456;SDS011;59263;48.160;11.752;2024-03-25T09:33:56;4.57;;;1.10;;
71456;SDS011;59263;48.160;11.752;2024-03-25T09:36:21;6.43;;;1.40;;
71456;SDS011;59263;48.160;11.752;2024-03-25T09:38:46;5.87;;;1.33;;
71456;SDS011;59263;48.160;11.752;2024-03-25T09:41:11;6.67;;;1.53;;
71456;SDS011;59263;48.160;11.752;2024-03-25T09:43:58;9.60;;;1.63;;
71456;SDS011;59263;48.160;11.752;2024-03-25T09:46:23;6.97;;;1.60;;
71456;SDS011;59263;48.160;11.752;2024-03-25T09:48:49;6.22;;;1.60;;
71456;SDS011;59263;48.160;11.752;2024-03-25T09:51:17;5.33;;;1.30;;
71456;SDS011;59263;48.160;11.752;2024-03-25T09:53:43;5.80;;;1.38;;
71456;SDS011;59263;48.160;11.752;2024-03-25T09:56:08;5.67;;;1.33;;
71456;SDS011;59263;48.160;11.752;2024-03-25T09:58:34;6.85;;;1.40;;
71456;SDS011;59263;48.160;11.752;2024-03-25T10:01:00;5.87;;;1.50;;
71456;SDS011;59263;48.160;11.752;2024-03-25T10:03:25;6.27;;;1.50;;
71456;SDS011;59263;48.160;11.752;2024-03-25T10:05:50;6.27;;;1.53;;
71456;SDS011;59263;48.160;11.752;2024-03-25T10:08:21;6.47;;;1.53;;
71456;SDS011;59263;48.160;11.752;2024-03-25T10:10:47;6.30;;;1.40;;
71456;SDS011;59263;48.160;11.752;2024-03-25T10:13:12;6.13;;;1.43;;
71456;SDS011;59263;48.160;11.752;2024-03-25T10:15:37;6.30;;;1.27;;
71456;SDS011;59263;48.160;11.752;2024-03-25T10:18:02;5.93;;;1.30;;
71456;SDS011;59263;48.160;11.752;2024-03-25T10:20:28;7.73;;;1.60;;
71456;SDS011;59263;48.160;11.752;2024-03-25T10:22:53;6.00;;;1.47;;
71456;SDS011;59263;48.160;11.752;2024-03-25T10:25:25;5.03;;;1.27;;
71456;SDS011;59263;48.160;11.752;2024-03-25T10:27:57;7.70;;;1.40;;
71456;SDS011;59263;48.160;11.752;2024-03-25T10:30:23;5.27;;;1.13;;
71456;SDS011;59263;48.160;11.752;2024-03-25T10:32:58;5.35;;;1.20;;
71456;SDS011;59263;48.160;11.752;2024-03-25T10:35:27;5.90;;;1.30;;
71456;SDS011;59263;48.160;11.752;2024-03-25T10:37:58;5.47;;;1.20;;
71456;SDS011;59263;48.160;11.752;2024-03-25T10:40:25;5.55;;;1.20;;
71456;SDS011;59263;48.160;11.752;2024-03-25T10:42:53;6.05;;;1.50;;
71456;SDS011;59263;48.160;11.752;2024-03-25T10:45:20;6.32;;;1.50;;
71456;SDS011;59263;48.160;11.752;2024-03-25T10:47:46;3.63;;;1.10;;
71456;SDS011;59263;48.160;11.752;2024-03-25T10:50:12;5.05;;;1.30;;
71456;SDS011;59263;48.160;11.752;2024-03-25T10:52:39;3.67;;;1.00;;
71456;SDS011;59263;48.160;11.752;2024-03-25T10:55:05;8.47;;;1.50;;
71456;SDS011;59263;48.160;11.752;2024-03-25T10:57:31;5.70;;;1.30;;
71456;SDS011;59263;48.160;11.752;2024-03-25T10:59:57;4.20;;;0.90;;
71456;SDS011;59263;48.160;11.752;2024-03-25T11:02:22;6.80;;;1.13;;
71456;SDS011;59263;48.160;11.752;2024-03-25T11:04:48;3.97;;;1.00;;
71456;SDS011;59263;48.160;11.752;2024-03-25T11:07:16;5.05;;;1.17;;
71456;SDS011;59263;48.160;11.752;2024-03-25T11:09:42;5.40;;;1.07;;
71456;SDS011;59263;48.160;11.752;2024-03-25T11:12:11;4.57;;;1.13;;
71456;SDS011;59263;48.160;11.752;2024-03-25T11:14:37;4.43;;;1.00;;
71456;SDS011;59263;48.160;11.752;2024-03-25T11:17:02;5.03;;;1.00;;
71456;SDS011;59263;48.160;11.752;2024-03-25T11:19:28;5.10;;;0.90;;
71456;SDS011;59263;48.160;11.752;2024-03-25T11:21:54;4.77;;;1.20;;
71456;SDS011;59263;48.160;11.752;2024-03-25T11:24:29;5.18;;;0.95;;
71456;SDS011;59263;48.160;11.752;2024-03-25T11:26:55;4.90;;;1.15;;
71456;SDS011;59263;48.160;11.752;2024-03-25T11:29:20;6.03;;;1.10;;
71456;SDS011;59263;48.160;11.752;2024-03-25T11:31:45;6.35;;;1.20;;
71456;SDS011;59263;48.160;11.752;2024-03-25T11:34:13;5.53;;;1.10;;
71456;SDS011;59263;48.160;11.752;2024-03-25T11:36:39;5.00;;;1.00;;
71456;SDS011;59263;48.160;11.752;2024-03-25T11:39:04;6.70;;;1.42;;
71456;SDS011;59263;48.160;11.752;2024-03-25T11:41:34;5.47;;;1.00;;
71456;SDS011;59263;48.160;11.752;2024-03-25T11:44:00;6.00;;;1.10;;
71456;SDS011;59263;48.160;11.752;2024-03-25T11:46:25;5.38;;;1.10;;
71456;SDS011;59263;48.160;11.752;2024-03-25T11:48:51;4.10;;;0.73;;
71456;SDS011;59263;48.160;11.752;2024-03-25T11:51:17;3.07;;;0.77;;
71456;SDS011;59263;48.160;11.752;2024-03-25T11:53:42;4.32;;;0.93;;
71456;SDS011;59263;48.160;11.752;2024-03-25T11:56:07;4.70;;;1.07;;
71456;SDS011;59263;48.160;11.752;2024-03-25T11:58:33;5.10;;;1.07;;
71456;SDS011;59263;48.160;11.752;2024-03-25T12:00:58;5.30;;;1.10;;
71456;SDS011;59263;48.160;11.752;2024-03-25T12:03:23;4.37;;;1.00;;
71456;SDS011;59263;48.160;11.752;2024-03-25T12:05:49;5.57;;;1.10;;
71456;SDS011;59263;48.160;11.752;2024-03-25T12:08:14;4.70;;;1.00;;
71456;SDS011;59263;48.160;11.752;2024-03-25T12:10:39;3.58;;;1.00;;
71456;SDS011;59263;48.160;11.752;2024-03-25T12:13:23;3.63;;;0.87;;
71456;SDS011;59263;48.160;11.752;2024-03-25T12:15:50;5.80;;;1.10;;
71456;SDS011;59263;48.160;11.752;2024-03-25T12:18:15;6.43;;;1.10;;
71456;SDS011;59263;48.160;11.752;2024-03-25T12:20:41;4.53;;;1.10;;
71456;SDS011;59263;48.160;11.752;2024-03-25T12:23:06;3.87;;;1.10;;
71456;SDS011;59263;48.160;11.752;2024-03-25T12:25:32;5.03;;;0.90;;
71456;SDS011;59263;48.160;11.752;2024-03-25T12:27:57;5.97;;;1.10;;
71456;SDS011;59263;48.160;11.752;2024-03-25T12:30:22;4.30;;;1.10;;
71456;SDS011;59263;48.160;11.752;2024-03-25T12:32:48;5.57;;;1.00;;
71456;SDS011;59263;48.160;11.752;2024-03-25T12:35:14;3.40;;;1.00;;
71456;SDS011;59263;48.160;11.752;2024-03-25T12:37:41;4.60;;;1.00;;
71456;SDS011;59263;48.160;11.752;2024-03-25T12:40:07;3.27;;;0.90;;
71456;SDS011;59263;48.160;11.752;2024-03-25T12:42:33;3.92;;;1.05;;
71456;SDS011;59263;48.160;11.752;2024-03-25T12:44:59;5.67;;;1.10;;
71456;SDS011;59263;48.160;11.752;2024-03-25T12:47:24;6.07;;;1.40;;
71456;SDS011;59263;48.160;11.752;2024-03-25T12:49:50;4.45;;;1.10;;
71456;SDS011;59263;48.160;11.752;2024-03-25T12:52:15;3.67;;;0.77;;
71456;SDS011;59263;48.160;11.752;2024-03-25T12:54:40;4.43;;;0.90;;
71456;SDS011;59263;48.160;11.752;2024-03-25T12:57:08;5.45;;;1.10;;
71456;SDS011;59263;48.160;11.752;2024-03-25T12:59:34;4.67;;;1.10;;
71456;SDS011;59263;48.160;11.752;2024-03-25T13:02:00;5.57;;;1.20;;
71456;SDS011;59263;48.160;11.752;2024-03-25T13:04:25;7.13;;;1.10;;
71456;SDS011;59263;48.160;11.752;2024-03-25T13:06:51;6.13;;;1.30;;
71456;SDS011;59263;48.160;11.752;2024-03-25T13:09:16;4.80;;;1.65;;
71456;SDS011;59263;48.160;11.752;2024-03-25T13:11:41;4.23;;;1.07;;
71456;SDS011;59263;48.160;11.752;2024-03-25T13:14:07;6.23;;;1.10;;
71456;SDS011;59263;48.160;11.752;2024-03-25T13:16:33;5.43;;;1.17;;
71456;SDS011;59263;48.160;11.752;2024-03-25T13:18:58;5.07;;;1.20;;
71456;SDS011;59263;48.160;11.752;2024-03-25T13:21:24;4.93;;;1.17;;
71456;SDS011;59263;48.160;11.752;2024-03-25T13:23:50;4.75;;;1.20;;
71456;SDS011;59263;48.160;11.752;2024-03-25T13:26:15;5.10;;;1.20;;
71456;SDS011;59263;48.160;11.752;2024-03-25T13:28:40;6.63;;;1.40;;
71456;SDS011;59263;48.160;11.752;2024-03-25T13:31:06;6.63;;;1.40;;
71456;SDS011;59263;48.160;11.752;2024-03-25T13:33:31;5.77;;;1.40;;
71456;SDS011;59263;48.160;11.752;2024-03-25T13:35:56;5.97;;;1.20;;
71456;SDS011;59263;48.160;11.752;2024-03-25T13:38:22;5.07;;;1.30;;
71456;SDS011;59263;48.160;11.752;2024-03-25T13:40:47;4.27;;;1.10;;
71456;SDS011;59263;48.160;11.752;2024-03-25T13:43:12;5.60;;;1.50;;
71456;SDS011;59263;48.160;11.752;2024-03-25T13:45:45;8.50;;;1.20;;
71456;SDS011;59263;48.160;11.752;2024-03-25T13:48:10;4.55;;;1.05;;
71456;SDS011;59263;48.160;11.752;2024-03-25T13:50:36;5.33;;;1.50;;
71456;SDS011;59263;48.160;11.752;2024-03-25T13:53:01;5.68;;;1.50;;
71456;SDS011;59263;48.160;11.752;2024-03-25T13:55:27;5.47;;;1.25;;
71456;SDS011;59263;48.160;11.752;2024-03-25T13:57:52;5.17;;;1.23;;
71456;SDS011;59263;48.160;11.752;2024-03-25T14:00:18;6.65;;;1.42;;
71456;SDS011;59263;48.160;11.752;2024-03-25T14:02:43;6.40;;;1.47;;
71456;SDS011;59263;48.160;11.752;2024-03-25T14:05:09;5.00;;;1.20;;
71456;SDS011;59263;48.160;11.752;2024-03-25T14:07:34;8.03;;;1.40;;
71456;SDS011;59263;48.160;11.752;2024-03-25T14:09:59;4.47;;;1.07;;
71456;SDS011;59263;48.160;11.752;2024-03-25T14:12:25;4.97;;;1.10;;
71456;SDS011;59263;48.160;11.752;2024-03-25T14:14:50;3.40;;;0.90;;
71456;SDS011;59263;48.160;11.752;2024-03-25T14:17:15;3.22;;;0.80;;
71456;SDS011;59263;48.160;11.752;2024-03-25T14:19:41;4.23;;;1.00;;
71456;SDS011;59263;48.160;11.752;2024-03-25T14:22:06;4.20;;;0.80;;
71456;SDS011;59263;48.160;11.752;2024-03-25T14:24:32;3.87;;;0.80;;